sensor_id;sensor_type;location;lat;lon;timestamp;P1;durP1;ratioP1;P2;durP2;ratioP2
10191;SDS011;17580;50.850;4.504;2024-01-30T00:00:55;4.03;;;3.57;;
10191;SDS011;17580;50.850;4.504;2024-01-30T00:03:22;4.97;;;3.67;;
10191;SDS011;17580;50.850;4.504;2024-01-30T00:05:50;4.33;;;3.93;;
10191;SDS011;17580;50.850;4.504;2024-01-30T00:08:17;7.70;;;3.47;;
10191;SDS011;17580;50.850;4.504;2024-01-30T00:10:45;4.50;;;3.47;;
10191;SDS011;17580;50.850;4.504;2024-01-30T00:13:12;3.73;;;3.43;;
10191;SDS011;17580;50.850;4.504;2024-01-30T00:15:42;3.50;;;3.20;;
10191;SDS011;17580;50.850;4.504;2024-01-30T00:18:12;3.53;;;3.23;;
10191;SDS011;17580;50.850;4.504;2024-01-30T00:20:39;5.00;;;3.50;;
10191;SDS011;17580;50.850;4.504;2024-01-30T00:23:10;4.13;;;3.67;;
10191;SDS011;17580;50.850;4.504;2024-01-30T00:25:37;3.37;;;3.17;;
10191;SDS011;17580;50.850;4.504;2024-01-30T00:28:05;3.67;;;3.33;;
10191;SDS011;17580;50.850;4.504;2024-01-30T00:30:32;4.03;;;3.70;;
10191;SDS011;17580;50.850;4.504;2024-01-30T00:33:00;4.60;;;4.00;;
10191;SDS011;17580;50.850;4.504;2024-01-30T00:35:29;3.77;;;3.47;;
10191;SDS011;17580;50.850;4.504;2024-01-30T00:37:56;4.57;;;3.30;;
10191;SDS011;17580;50.850;4.504;2024-01-30T00:40:24;3.57;;;3.27;;
10191;SDS011;17580;50.850;4.504;2024-01-30T00:42:51;4.40;;;4.00;;
10191;SDS011;17580;50.850;4.504;2024-01-30T00:45:19;3.70;;;3.40;;
10191;SDS011;17580;50.850;4.504;2024-01-30T00:47:49;5.57;;;3.57;;
10191;SDS011;17580;50.850;4.504;2024-01-30T00:50:17;4.13;;;3.53;;
10191;SDS011;17580;50.850;4.504;2024-01-30T00:52:46;4.50;;;3.83;;
10191;SDS011;17580;50.850;4.504;2024-01-30T00:55:13;3.73;;;3.43;;
10191;SDS011;17580;50.850;4.504;2024-01-30T00:57:41;4.03;;;3.60;;
10191;SDS011;17580;50.850;4.504;2024-01-30T01:00:09;4.53;;;4.13;;
10191;SDS011;17580;50.850;4.504;2024-01-30T01:02:37;4.70;;;3.80;;
10191;SDS011;17580;50.850;4.504;2024-01-30T01:05:05;4.40;;;3.27;;
10191;SDS011;17580;50.850;4.504;2024-01-30T01:07:33;3.80;;;3.50;;
10191;SDS011;17580;50.850;4.504;2024-01-30T01:10:02;5.20;;;4.17;;
10191;SDS011;17580;50.850;4.504;2024-01-30T01:12:30;4.00;;;3.60;;
10191;SDS011;17580;50.850;4.504;2024-01-30T01:14:58;4.83;;;3.57;;
10191;SDS011;17580;50.850;4.504;2024-01-30T01:17:27;5.37;;;4.00;;
10191;SDS011;17580;50.850;4.504;2024-01-30T01:19:55;5.63;;;4.07;;
10191;SDS011;17580;50.850;4.504;2024-01-30T01:22:22;3.93;;;3.57;;
10191;SDS011;17580;50.850;4.504;2024-01-30T01:24:50;6.67;;;4.03;;
10191;SDS011;17580;50.850;4.504;2024-01-30T01:27:19;3.90;;;3.60;;
10191;SDS011;17580;50.850;4.504;2024-01-30T01:29:46;4.10;;;3.67;;
10191;SDS011;17580;50.850;4.504;2024-01-30T01:32:14;3.20;;;2.90;;
10191;SDS011;17580;50.850;4.504;2024-01-30T01:34:41;4.17;;;3.77;;
10191;SDS011;17580;50.850;4.504;2024-01-30T01:37:09;3.80;;;3.47;;
10191;SDS011;17580;50.850;4.504;2024-01-30T01:39:36;5.03;;;3.47;;
10191;SDS011;17580;50.850;4.504;2024-01-30T01:42:04;3.97;;;3.67;;
10191;SDS011;17580;50.850;4.504;2024-01-30T01:44:33;4.43;;;3.43;;
10191;SDS011;17580;50.850;4.504;2024-01-30T01:47:01;4.00;;;3.70;;
10191;SDS011;17580;50.850;4.504;2024-01-30T01:49:28;3.17;;;2.97;;
10191;SDS011;17580;50.850;4.504;2024-01-30T01:51:55;4.20;;;3.80;;
10191;SDS011;17580;50.850;4.504;2024-01-30T01:54:23;5.77;;;3.97;;
10191;SDS011;17580;50.850;4.504;2024-01-30T01:56:51;6.23;;;3.47;;
10191;SDS011;17580;50.850;4.504;2024-01-30T01:59:19;4.63;;;3.60;;
10191;SDS011;17580;50.850;4.504;2024-01-30T02:01:49;3.40;;;2.93;;
10191;SDS011;17580;50.850;4.504;2024-01-30T02:04:17;3.73;;;3.33;;
10191;SDS011;17580;50.850;4.504;2024-01-30T02:06:44;4.07;;;3.67;;
10191;SDS011;17580;50.850;4.504;2024-01-30T02:09:12;4.47;;;3.53;;
10191;SDS011;17580;50.850;4.504;2024-01-30T02:11:41;5.00;;;3.57;;
10191;SDS011;17580;50.850;4.504;2024-01-30T02:14:08;4.17;;;3.70;;
10191;SDS011;17580;50.850;4.504;2024-01-30T02:16:36;4.90;;;3.87;;
10191;SDS011;17580;50.850;4.504;2024-01-30T02:19:05;3.90;;;3.57;;
10191;SDS011;17580;50.850;4.504;2024-01-30T02:21:34;4.33;;;3.87;;
10191;SDS011;17580;50.850;4.504;2024-01-30T02:24:02;4.20;;;3.70;;
10191;SDS011;17580;50.850;4.504;2024-01-30T02:26:30;3.57;;;3.27;;
10191;SDS011;17580;50.850;4.504;2024-01-30T02:28:57;3.70;;;3.37;;
10191;SDS011;17580;50.850;4.504;2024-01-30T02:31:25;4.23;;;3.17;;
10191;SDS011;17580;50.850;4.504;2024-01-30T02:33:52;6.40;;;3.60;;
10191;SDS011;17580;50.850;4.504;2024-01-30T02:36:19;4.00;;;2.97;;
10191;SDS011;17580;50.850;4.504;2024-01-30T02:38:48;4.73;;;3.30;;
10191;SDS011;17580;50.850;4.504;2024-01-30T02:41:16;3.57;;;3.27;;
10191;SDS011;17580;50.850;4.504;2024-01-30T02:43:43;3.10;;;2.87;;
10191;SDS011;17580;50.850;4.504;2024-01-30T02:46:11;3.23;;;3.03;;
10191;SDS011;17580;50.850;4.504;2024-01-30T02:48:38;4.20;;;3.37;;
10191;SDS011;17580;50.850;4.504;2024-01-30T02:51:06;3.10;;;2.90;;
10191;SDS011;17580;50.850;4.504;2024-01-30T02:53:33;3.97;;;3.60;;
10191;SDS011;17580;50.850;4.504;2024-01-30T02:56:02;4.00;;;3.37;;
10191;SDS011;17580;50.850;4.504;2024-01-30T02:58:30;3.43;;;3.10;;
10191;SDS011;17580;50.850;4.504;2024-01-30T03:00:58;5.20;;;3.43;;
10191;SDS011;17580;50.850;4.504;2024-01-30T03:03:25;4.57;;;3.50;;
10191;SDS011;17580;50.850;4.504;2024-01-30T03:05:53;3.10;;;2.90;;
10191;SDS011;17580;50.850;4.504;2024-01-30T03:08:20;3.90;;;3.60;;
10191;SDS011;17580;50.850;4.504;2024-01-30T03:10:48;4.03;;;3.47;;
10191;SDS011;17580;50.850;4.504;2024-01-30T03:13:17;5.20;;;2.80;;
10191;SDS011;17580;50.850;4.504;2024-01-30T03:15:44;4.20;;;3.77;;
10191;SDS011;17580;50.850;4.504;2024-01-30T03:18:12;3.43;;;3.20;;
10191;SDS011;17580;50.850;4.504;2024-01-30T03:20:39;4.73;;;3.33;;
10191;SDS011;17580;50.850;4.504;2024-01-30T03:23:07;10.10;;;3.80;;
10191;SDS011;17580;50.850;4.504;2024-01-30T03:25:34;4.47;;;3.50;;
10191;SDS011;17580;50.850;4.504;2024-01-30T03:28:02;3.80;;;3.50;;
10191;SDS011;17580;50.850;4.504;2024-01-30T03:30:31;4.63;;;3.20;;
10191;SDS011;17580;50.850;4.504;2024-01-30T03:32:58;4.03;;;3.63;;
10191;SDS011;17580;50.850;4.504;2024-01-30T03:35:26;3.77;;;3.27;;
10191;SDS011;17580;50.850;4.504;2024-01-30T03:37:53;4.40;;;3.63;;
10191;SDS011;17580;50.850;4.504;2024-01-30T03:40:21;2.93;;;2.73;;
10191;SDS011;17580;50.850;4.504;2024-01-30T03:42:49;4.93;;;3.33;;
10191;SDS011;17580;50.850;4.504;2024-01-30T03:45:17;5.53;;;3.40;;
10191;SDS011;17580;50.850;4.504;2024-01-30T03:47:46;3.97;;;3.67;;
10191;SDS011;17580;50.850;4.504;2024-01-30T03:50:14;3.43;;;3.23;;
10191;SDS011;17580;50.850;4.504;2024-01-30T03:52:42;3.57;;;3.37;;
10191;SDS011;17580;50.850;4.504;2024-01-30T03:55:10;4.53;;;4.13;;
10191;SDS011;17580;50.850;4.504;2024-01-30T03:57:37;4.27;;;3.50;;
10191;SDS011;17580;50.850;4.504;2024-01-30T04:00:05;4.53;;;3.70;;
10191;SDS011;17580;50.850;4.504;2024-01-30T04:02:33;3.97;;;3.70;;
10191;SDS011;17580;50.850;4.504;2024-01-30T04:05:02;3.77;;;3.47;;
10191;SDS011;17580;50.850;4.504;2024-01-30T04:07:30;3.67;;;3.40;;
10191;SDS011;17580;50.850;4.504;2024-01-30T04:09:57;3.60;;;3.30;;
10191;SDS011;17580;50.850;4.504;2024-01-30T04:12:25;6.60;;;4.30;;
10191;SDS011;17580;50.850;4.504;2024-01-30T04:14:52;3.87;;;3.47;;
10191;SDS011;17580;50.850;4.504;2024-01-30T04:17:20;4.10;;;3.70;;
10191;SDS011;17580;50.850;4.504;2024-01-30T04:19:47;3.00;;;2.73;;
10191;SDS011;17580;50.850;4.504;2024-01-30T04:22:16;5.27;;;3.57;;
10191;SDS011;17580;50.850;4.504;2024-01-30T04:24:43;4.23;;;3.83;;
10191;SDS011;17580;50.850;4.504;2024-01-30T04:27:11;4.27;;;3.87;;
10191;SDS011;17580;50.850;4.504;2024-01-30T04:29:38;5.33;;;3.83;;
10191;SDS011;17580;50.850;4.504;2024-01-30T04:32:06;8.43;;;4.33;;
10191;SDS011;17580;50.850;4.504;2024-01-30T04:34:32;5.17;;;3.60;;
10191;SDS011;17580;50.850;4.504;2024-01-30T04:37:00;4.00;;;3.70;;
10191;SDS011;17580;50.850;4.504;2024-01-30T04:39:29;3.47;;;3.27;;
10191;SDS011;17580;50.850;4.504;2024-01-30T04:41:56;4.10;;;3.53;;
10191;SDS011;17580;50.850;4.504;2024-01-30T04:44:24;4.33;;;3.93;;
10191;SDS011;17580;50.850;4.504;2024-01-30T04:46:51;4.00;;;3.70;;
10191;SDS011;17580;50.850;4.504;2024-01-30T04:49:19;4.00;;;3.53;;
10191;SDS011;17580;50.850;4.504;2024-01-30T04:51:46;4.33;;;4.03;;
10191;SDS011;17580;50.850;4.504;2024-01-30T04:54:14;3.97;;;3.53;;
10191;SDS011;17580;50.850;4.504;2024-01-30T04:56:43;3.57;;;3.30;;
10191;SDS011;17580;50.850;4.504;2024-01-30T04:59:11;3.43;;;3.23;;
10191;SDS011;17580;50.850;4.504;2024-01-30T05:01:39;5.43;;;3.80;;
10191;SDS011;17580;50.850;4.504;2024-01-30T05:04:07;3.57;;;3.20;;
10191;SDS011;17580;50.850;4.504;2024-01-30T05:06:34;4.23;;;3.83;;
10191;SDS011;17580;50.850;4.504;2024-01-30T05:09:02;3.40;;;3.00;;
10191;SDS011;17580;50.850;4.504;2024-01-30T05:11:29;3.17;;;2.93;;
10191;SDS011;17580;50.850;4.504;2024-01-30T05:13:58;4.67;;;3.77;;
10191;SDS011;17580;50.850;4.504;2024-01-30T05:16:26;4.00;;;3.70;;
10191;SDS011;17580;50.850;4.504;2024-01-30T05:18:53;4.37;;;3.60;;
10191;SDS011;17580;50.850;4.504;2024-01-30T05:21:20;3.60;;;3.30;;
10191;SDS011;17580;50.850;4.504;2024-01-30T05:23:48;3.50;;;3.20;;
10191;SDS011;17580;50.850;4.504;2024-01-30T05:26:15;5.40;;;3.40;;
10191;SDS011;17580;50.850;4.504;2024-01-30T05:28:43;4.10;;;3.70;;
10191;SDS011;17580;50.850;4.504;2024-01-30T05:31:12;6.27;;;3.63;;
10191;SDS011;17580;50.850;4.504;2024-01-30T05:33:39;4.03;;;3.60;;
10191;SDS011;17580;50.850;4.504;2024-01-30T05:36:07;4.10;;;3.70;;
10191;SDS011;17580;50.850;4.504;2024-01-30T05:38:37;4.20;;;3.90;;
10191;SDS011;17580;50.850;4.504;2024-01-30T05:41:05;5.23;;;3.70;;
10191;SDS011;17580;50.850;4.504;2024-01-30T05:43:32;4.30;;;3.83;;
10191;SDS011;17580;50.850;4.504;2024-01-30T05:46:00;4.03;;;3.60;;
10191;SDS011;17580;50.850;4.504;2024-01-30T05:48:29;4.83;;;4.10;;
10191;SDS011;17580;50.850;4.504;2024-01-30T05:50:56;4.07;;;3.77;;
10191;SDS011;17580;50.850;4.504;2024-01-30T05:53:25;5.73;;;3.63;;
10191;SDS011;17580;50.850;4.504;2024-01-30T05:55:52;6.03;;;4.40;;
10191;SDS011;17580;50.850;4.504;2024-01-30T05:58:20;4.10;;;3.70;;
10191;SDS011;17580;50.850;4.504;2024-01-30T06:00:47;6.87;;;4.00;;
10191;SDS011;17580;50.850;4.504;2024-01-30T06:03:15;5.30;;;4.13;;
10191;SDS011;17580;50.850;4.504;2024-01-30T06:05:44;4.07;;;3.77;;
10191;SDS011;17580;50.850;4.504;2024-01-30T06:08:11;5.73;;;4.53;;
10191;SDS011;17580;50.850;4.504;2024-01-30T06:10:39;4.50;;;4.07;;
10191;SDS011;17580;50.850;4.504;2024-01-30T06:13:06;5.93;;;4.03;;
10191;SDS011;17580;50.850;4.504;2024-01-30T06:15:34;5.87;;;4.23;;
10191;SDS011;17580;50.850;4.504;2024-01-30T06:18:01;4.63;;;4.23;;
10191;SDS011;17580;50.850;4.504;2024-01-30T06:20:29;5.17;;;4.30;;
10191;SDS011;17580;50.850;4.504;2024-01-30T06:22:58;4.73;;;3.83;;
10191;SDS011;17580;50.850;4.504;2024-01-30T06:25:25;6.83;;;4.93;;
10191;SDS011;17580;50.850;4.504;2024-01-30T06:27:53;5.13;;;4.37;;
10191;SDS011;17580;50.850;4.504;2024-01-30T06:30:20;5.20;;;4.57;;
10191;SDS011;17580;50.850;4.504;2024-01-30T06:32:48;5.73;;;4.30;;
10191;SDS011;17580;50.850;4.504;2024-01-30T06:35:15;5.57;;;4.33;;
10191;SDS011;17580;50.850;4.504;2024-01-30T06:37:43;5.70;;;4.90;;
10191;SDS011;17580;50.850;4.504;2024-01-30T06:40:12;5.97;;;4.33;;
10191;SDS011;17580;50.850;4.504;2024-01-30T06:42:40;6.37;;;5.10;;
10191;SDS011;17580;50.850;4.504;2024-01-30T06:45:08;4.93;;;4.40;;
10191;SDS011;17580;50.850;4.504;2024-01-30T06:47:35;5.30;;;4.80;;
10191;SDS011;17580;50.850;4.504;2024-01-30T06:50:03;5.83;;;5.23;;
10191;SDS011;17580;50.850;4.504;2024-01-30T06:52:30;6.50;;;4.20;;
10191;SDS011;17580;50.850;4.504;2024-01-30T06:54:58;5.07;;;4.60;;
10191;SDS011;17580;50.850;4.504;2024-01-30T06:57:27;5.23;;;4.73;;
10191;SDS011;17580;50.850;4.504;2024-01-30T06:59:55;5.23;;;4.73;;
10191;SDS011;17580;50.850;4.504;2024-01-30T07:02:23;4.73;;;4.37;;
10191;SDS011;17580;50.850;4.504;2024-01-30T07:04:50;4.60;;;4.20;;
10191;SDS011;17580;50.850;4.504;2024-01-30T07:07:18;5.13;;;4.63;;
10191;SDS011;17580;50.850;4.504;2024-01-30T07:09:45;4.90;;;4.03;;
10191;SDS011;17580;50.850;4.504;2024-01-30T07:12:14;5.53;;;4.63;;
10191;SDS011;17580;50.850;4.504;2024-01-30T07:14:44;4.80;;;4.40;;
10191;SDS011;17580;50.850;4.504;2024-01-30T07:17:11;7.03;;;5.03;;
10191;SDS011;17580;50.850;4.504;2024-01-30T07:19:39;7.10;;;5.43;;
10191;SDS011;17580;50.850;4.504;2024-01-30T07:22:06;4.53;;;4.13;;
10191;SDS011;17580;50.850;4.504;2024-01-30T07:24:34;6.70;;;4.77;;
10191;SDS011;17580;50.850;4.504;2024-01-30T07:27:01;6.03;;;4.53;;
10191;SDS011;17580;50.850;4.504;2024-01-30T07:29:29;5.27;;;4.57;;
10191;SDS011;17580;50.850;4.504;2024-01-30T07:31:58;6.77;;;5.00;;
10191;SDS011;17580;50.850;4.504;2024-01-30T07:34:26;4.83;;;4.43;;
10191;SDS011;17580;50.850;4.504;2024-01-30T07:36:53;6.03;;;4.60;;
10191;SDS011;17580;50.850;4.504;2024-01-30T07:39:20;5.23;;;4.30;;
10191;SDS011;17580;50.850;4.504;2024-01-30T07:41:48;5.97;;;4.67;;
10191;SDS011;17580;50.850;4.504;2024-01-30T07:44:15;5.43;;;4.77;;
10191;SDS011;17580;50.850;4.504;2024-01-30T07:46:43;7.10;;;4.80;;
10191;SDS011;17580;50.850;4.504;2024-01-30T07:49:12;8.20;;;5.40;;
10191;SDS011;17580;50.850;4.504;2024-01-30T07:51:40;5.93;;;4.87;;
10191;SDS011;17580;50.850;4.504;2024-01-30T07:54:14;6.20;;;4.40;;
10191;SDS011;17580;50.850;4.504;2024-01-30T07:56:42;9.70;;;4.77;;
10191;SDS011;17580;50.850;4.504;2024-01-30T07:59:10;7.23;;;4.47;;
10191;SDS011;17580;50.850;4.504;2024-01-30T08:01:37;5.60;;;4.17;;
10191;SDS011;17580;50.850;4.504;2024-01-30T08:04:05;5.50;;;4.57;;
10191;SDS011;17580;50.850;4.504;2024-01-30T08:06:34;7.47;;;4.70;;
10191;SDS011;17580;50.850;4.504;2024-01-30T08:09:02;9.13;;;4.87;;
10191;SDS011;17580;50.850;4.504;2024-01-30T08:11:29;8.73;;;4.90;;
10191;SDS011;17580;50.850;4.504;2024-01-30T08:13:57;10.00;;;5.30;;
10191;SDS011;17580;50.850;4.504;2024-01-30T08:16:24;6.37;;;4.20;;
10191;SDS011;17580;50.850;4.504;2024-01-30T08:18:52;6.37;;;4.80;;
10191;SDS011;17580;50.850;4.504;2024-01-30T08:21:22;6.27;;;5.03;;
10191;SDS011;17580;50.850;4.504;2024-01-30T08:23:51;5.57;;;4.97;;
10191;SDS011;17580;50.850;4.504;2024-01-30T08:26:19;7.67;;;5.40;;
10191;SDS011;17580;50.850;4.504;2024-01-30T08:28:46;7.30;;;5.40;;
10191;SDS011;17580;50.850;4.504;2024-01-30T08:31:15;8.63;;;5.00;;
10191;SDS011;17580;50.850;4.504;2024-01-30T08:33:42;9.80;;;5.20;;
10191;SDS011;17580;50.850;4.504;2024-01-30T08:36:10;7.20;;;5.20;;
10191;SDS011;17580;50.850;4.504;2024-01-30T08:38:37;6.13;;;4.77;;
10191;SDS011;17580;50.850;4.504;2024-01-30T08:41:06;6.80;;;4.67;;
10191;SDS011;17580;50.850;4.504;2024-01-30T08:43:34;8.23;;;5.10;;
10191;SDS011;17580;50.850;4.504;2024-01-30T08:46:02;10.87;;;6.37;;
10191;SDS011;17580;50.850;4.504;2024-01-30T08:48:29;10.47;;;5.40;;
10191;SDS011;17580;50.850;4.504;2024-01-30T08:50:57;7.80;;;5.17;;
10191;SDS011;17580;50.850;4.504;2024-01-30T08:53:24;9.03;;;5.23;;
10191;SDS011;17580;50.850;4.504;2024-01-30T08:55:52;8.33;;;5.60;;
10191;SDS011;17580;50.850;4.504;2024-01-30T08:58:21;8.67;;;6.20;;
10191;SDS011;17580;50.850;4.504;2024-01-30T09:00:48;8.17;;;5.80;;
10191;SDS011;17580;50.850;4.504;2024-01-30T09:03:17;6.70;;;5.67;;
10191;SDS011;17580;50.850;4.504;2024-01-30T09:05:44;9.07;;;5.60;;
10191;SDS011;17580;50.850;4.504;2024-01-30T09:08:12;7.57;;;5.93;;
10191;SDS011;17580;50.850;4.504;2024-01-30T09:10:39;10.83;;;5.70;;
10191;SDS011;17580;50.850;4.504;2024-01-30T09:13:07;8.60;;;5.60;;
10191;SDS011;17580;50.850;4.504;2024-01-30T09:15:36;20.07;;;6.17;;
10191;SDS011;17580;50.850;4.504;2024-01-30T09:18:03;6.63;;;5.13;;
10191;SDS011;17580;50.850;4.504;2024-01-30T09:20:31;11.00;;;6.33;;
10191;SDS011;17580;50.850;4.504;2024-01-30T09:22:58;8.80;;;5.37;;
10191;SDS011;17580;50.850;4.504;2024-01-30T09:25:26;7.80;;;5.37;;
10191;SDS011;17580;50.850;4.504;2024-01-30T09:27:53;9.93;;;6.27;;
10191;SDS011;17580;50.850;4.504;2024-01-30T09:30:20;10.07;;;6.30;;
10191;SDS011;17580;50.850;4.504;2024-01-30T09:32:49;7.00;;;5.33;;
10191;SDS011;17580;50.850;4.504;2024-01-30T09:35:17;8.53;;;6.00;;
10191;SDS011;17580;50.850;4.504;2024-01-30T09:37:44;12.23;;;5.93;;
10191;SDS011;17580;50.850;4.504;2024-01-30T09:40:12;7.87;;;6.23;;
10191;SDS011;17580;50.850;4.504;2024-01-30T09:42:44;7.43;;;5.03;;
10191;SDS011;17580;50.850;4.504;2024-01-30T09:45:12;10.60;;;5.57;;
10191;SDS011;17580;50.850;4.504;2024-01-30T09:47:41;9.83;;;6.20;;
10191;SDS011;17580;50.850;4.504;2024-01-30T09:50:11;12.07;;;6.13;;
10191;SDS011;17580;50.850;4.504;2024-01-30T09:52:39;8.30;;;5.80;;
10191;SDS011;17580;50.850;4.504;2024-01-30T09:55:09;9.20;;;6.30;;
10191;SDS011;17580;50.850;4.504;2024-01-30T09:57:36;12.50;;;6.93;;
10191;SDS011;17580;50.850;4.504;2024-01-30T10:00:04;8.80;;;7.67;;
10191;SDS011;17580;50.850;4.504;2024-01-30T10:02:34;11.47;;;6.60;;
10191;SDS011;17580;50.850;4.504;2024-01-30T10:05:02;11.53;;;6.90;;
10191;SDS011;17580;50.850;4.504;2024-01-30T10:07:31;12.80;;;7.50;;
10191;SDS011;17580;50.850;4.504;2024-01-30T10:09:59;7.87;;;6.90;;
10191;SDS011;17580;50.850;4.504;2024-01-30T10:12:27;12.00;;;7.00;;
10191;SDS011;17580;50.850;4.504;2024-01-30T10:14:55;11.33;;;7.03;;
10191;SDS011;17580;50.850;4.504;2024-01-30T10:17:24;12.20;;;7.90;;
10191;SDS011;17580;50.850;4.504;2024-01-30T10:19:52;14.77;;;8.50;;
10191;SDS011;17580;50.850;4.504;2024-01-30T10:22:20;11.93;;;7.87;;
10191;SDS011;17580;50.850;4.504;2024-01-30T10:24:50;13.23;;;7.60;;
10191;SDS011;17580;50.850;4.504;2024-01-30T10:27:23;10.00;;;7.63;;
10191;SDS011;17580;50.850;4.504;2024-01-30T10:29:51;12.43;;;7.13;;
10191;SDS011;17580;50.850;4.504;2024-01-30T10:32:19;11.37;;;7.80;;
10191;SDS011;17580;50.850;4.504;2024-01-30T10:34:47;10.97;;;6.70;;
10191;SDS011;17580;50.850;4.504;2024-01-30T10:37:15;11.47;;;6.83;;
10191;SDS011;17580;50.850;4.504;2024-01-30T10:39:43;14.17;;;6.97;;
10191;SDS011;17580;50.850;4.504;2024-01-30T10:42:12;13.67;;;7.87;;
10191;SDS011;17580;50.850;4.504;2024-01-30T10:44:44;13.57;;;7.53;;
10191;SDS011;17580;50.850;4.504;2024-01-30T10:47:12;10.37;;;6.97;;
10191;SDS011;17580;50.850;4.504;2024-01-30T10:49:39;11.67;;;6.20;;
10191;SDS011;17580;50.850;4.504;2024-01-30T10:52:09;13.37;;;6.90;;
10191;SDS011;17580;50.850;4.504;2024-01-30T10:54:38;9.67;;;6.23;;
10191;SDS011;17580;50.850;4.504;2024-01-30T10:57:07;9.73;;;6.40;;
10191;SDS011;17580;50.850;4.504;2024-01-30T10:59:36;9.50;;;5.60;;
10191;SDS011;17580;50.850;4.504;2024-01-30T11:02:04;11.60;;;6.73;;
10191;SDS011;17580;50.850;4.504;2024-01-30T11:04:35;13.23;;;6.83;;
10191;SDS011;17580;50.850;4.504;2024-01-30T11:07:03;7.17;;;5.53;;
10191;SDS011;17580;50.850;4.504;2024-01-30T11:09:41;9.87;;;6.70;;
10191;SDS011;17580;50.850;4.504;2024-01-30T11:12:12;8.03;;;5.73;;
10191;SDS011;17580;50.850;4.504;2024-01-30T11:14:41;9.50;;;5.57;;
10191;SDS011;17580;50.850;4.504;2024-01-30T11:17:09;9.07;;;5.53;;
10191;SDS011;17580;50.850;4.504;2024-01-30T11:19:38;11.30;;;5.87;;
10191;SDS011;17580;50.850;4.504;2024-01-30T11:22:06;7.30;;;4.63;;
10191;SDS011;17580;50.850;4.504;2024-01-30T11:24:38;10.37;;;5.17;;
10191;SDS011;17580;50.850;4.504;2024-01-30T11:27:08;12.03;;;4.37;;
10191;SDS011;17580;50.850;4.504;2024-01-30T11:29:36;8.53;;;4.43;;
10191;SDS011;17580;50.850;4.504;2024-01-30T11:32:06;10.90;;;4.30;;
10191;SDS011;17580;50.850;4.504;2024-01-30T11:34:34;8.13;;;4.03;;
10191;SDS011;17580;50.850;4.504;2024-01-30T11:37:03;5.63;;;3.67;;
10191;SDS011;17580;50.850;4.504;2024-01-30T11:39:30;9.30;;;3.70;;
10191;SDS011;17580;50.850;4.504;2024-01-30T11:41:58;6.80;;;3.80;;
10191;SDS011;17580;50.850;4.504;2024-01-30T11:44:26;5.53;;;3.23;;
10191;SDS011;17580;50.850;4.504;2024-01-30T11:46:54;4.10;;;2.43;;
10191;SDS011;17580;50.850;4.504;2024-01-30T11:49:23;3.50;;;2.10;;
10191;SDS011;17580;50.850;4.504;2024-01-30T11:51:50;4.90;;;2.50;;
10191;SDS011;17580;50.850;4.504;2024-01-30T11:54:18;3.23;;;1.97;;
10191;SDS011;17580;50.850;4.504;2024-01-30T11:56:46;4.50;;;2.10;;
10191;SDS011;17580;50.850;4.504;2024-01-30T11:59:13;1.93;;;1.60;;
10191;SDS011;17580;50.850;4.504;2024-01-30T12:01:41;2.73;;;1.60;;
10191;SDS011;17580;50.850;4.504;2024-01-30T12:04:08;2.10;;;1.30;;
10191;SDS011;17580;50.850;4.504;2024-01-30T12:06:37;2.57;;;1.70;;
10191;SDS011;17580;50.850;4.504;2024-01-30T12:09:05;2.30;;;1.23;;
10191;SDS011;17580;50.850;4.504;2024-01-30T12:11:43;1.73;;;1.30;;
10191;SDS011;17580;50.850;4.504;2024-01-30T12:14:11;1.13;;;1.00;;
10191;SDS011;17580;50.850;4.504;2024-01-30T12:16:39;1.80;;;0.87;;
10191;SDS011;17580;50.850;4.504;2024-01-30T12:19:07;2.83;;;1.43;;
10191;SDS011;17580;50.850;4.504;2024-01-30T12:21:34;3.77;;;1.20;;
10191;SDS011;17580;50.850;4.504;2024-01-30T12:24:04;2.57;;;0.90;;
10191;SDS011;17580;50.850;4.504;2024-01-30T12:26:32;2.23;;;1.50;;
10191;SDS011;17580;50.850;4.504;2024-01-30T12:29:00;2.73;;;1.03;;
10191;SDS011;17580;50.850;4.504;2024-01-30T12:31:27;2.30;;;1.13;;
10191;SDS011;17580;50.850;4.504;2024-01-30T12:33:55;2.70;;;1.00;;
10191;SDS011;17580;50.850;4.504;2024-01-30T12:36:22;3.33;;;1.00;;
10191;SDS011;17580;50.850;4.504;2024-01-30T12:38:50;2.17;;;1.03;;
10191;SDS011;17580;50.850;4.504;2024-01-30T12:41:19;1.97;;;1.10;;
10191;SDS011;17580;50.850;4.504;2024-01-30T12:43:50;1.43;;;1.20;;
10191;SDS011;17580;50.850;4.504;2024-01-30T12:46:17;1.37;;;1.10;;
10191;SDS011;17580;50.850;4.504;2024-01-30T12:48:45;1.20;;;0.90;;
10191;SDS011;17580;50.850;4.504;2024-01-30T12:51:12;2.60;;;1.53;;
10191;SDS011;17580;50.850;4.504;2024-01-30T12:53:40;3.37;;;1.00;;
10191;SDS011;17580;50.850;4.504;2024-01-30T12:56:08;2.07;;;1.10;;
10191;SDS011;17580;50.850;4.504;2024-01-30T12:58:37;3.30;;;1.33;;
10191;SDS011;17580;50.850;4.504;2024-01-30T13:01:04;1.67;;;1.57;;
10191;SDS011;17580;50.850;4.504;2024-01-30T13:03:32;3.43;;;1.30;;
10191;SDS011;17580;50.850;4.504;2024-01-30T13:06:00;1.53;;;1.00;;
10191;SDS011;17580;50.850;4.504;2024-01-30T13:08:28;2.17;;;0.87;;
10191;SDS011;17580;50.850;4.504;2024-01-30T13:10:55;2.30;;;1.23;;
10191;SDS011;17580;50.850;4.504;2024-01-30T13:13:23;3.80;;;1.40;;
10191;SDS011;17580;50.850;4.504;2024-01-30T13:15:52;0.90;;;0.90;;
10191;SDS011;17580;50.850;4.504;2024-01-30T13:18:20;1.07;;;0.97;;
10191;SDS011;17580;50.850;4.504;2024-01-30T13:20:47;1.73;;;1.20;;
10191;SDS011;17580;50.850;4.504;2024-01-30T13:23:15;2.00;;;1.17;;
10191;SDS011;17580;50.850;4.504;2024-01-30T13:25:50;1.63;;;1.03;;
10191;SDS011;17580;50.850;4.504;2024-01-30T13:28:19;1.97;;;1.07;;
10191;SDS011;17580;50.850;4.504;2024-01-30T13:30:46;2.00;;;1.00;;
10191;SDS011;17580;50.850;4.504;2024-01-30T13:33:15;3.60;;;1.03;;
10191;SDS011;17580;50.850;4.504;2024-01-30T13:35:43;2.97;;;1.60;;
10191;SDS011;17580;50.850;4.504;2024-01-30T13:38:10;2.77;;;1.20;;
10191;SDS011;17580;50.850;4.504;2024-01-30T13:40:38;2.33;;;1.10;;
10191;SDS011;17580;50.850;4.504;2024-01-30T13:43:06;4.43;;;1.20;;
10191;SDS011;17580;50.850;4.504;2024-01-30T13:45:33;3.43;;;1.23;;
10191;SDS011;17580;50.850;4.504;2024-01-30T13:48:01;2.13;;;1.23;;
10191;SDS011;17580;50.850;4.504;2024-01-30T13:50:30;4.10;;;1.73;;
10191;SDS011;17580;50.850;4.504;2024-01-30T13:52:58;7.80;;;1.30;;
10191;SDS011;17580;50.850;4.504;2024-01-30T13:55:26;1.87;;;1.23;;
10191;SDS011;17580;50.850;4.504;2024-01-30T13:57:54;2.47;;;1.30;;
10191;SDS011;17580;50.850;4.504;2024-01-30T14:00:21;3.70;;;1.60;;
10191;SDS011;17580;50.850;4.504;2024-01-30T14:02:51;1.13;;;0.90;;
10191;SDS011;17580;50.850;4.504;2024-01-30T14:05:19;3.50;;;1.30;;
10191;SDS011;17580;50.850;4.504;2024-01-30T14:07:49;3.97;;;1.43;;
10191;SDS011;17580;50.850;4.504;2024-01-30T14:10:16;1.87;;;1.07;;
10191;SDS011;17580;50.850;4.504;2024-01-30T14:12:44;2.17;;;1.30;;
10191;SDS011;17580;50.850;4.504;2024-01-30T14:15:13;5.63;;;1.53;;
10191;SDS011;17580;50.850;4.504;2024-01-30T14:17:43;2.73;;;1.50;;
10191;SDS011;17580;50.850;4.504;2024-01-30T14:20:13;3.47;;;1.63;;
10191;SDS011;17580;50.850;4.504;2024-01-30T14:22:41;3.67;;;1.80;;
10191;SDS011;17580;50.850;4.504;2024-01-30T14:25:10;2.90;;;1.37;;
10191;SDS011;17580;50.850;4.504;2024-01-30T14:27:38;3.90;;;1.30;;
10191;SDS011;17580;50.850;4.504;2024-01-30T14:30:06;4.73;;;1.37;;
10191;SDS011;17580;50.850;4.504;2024-01-30T14:32:37;1.67;;;1.10;;
10191;SDS011;17580;50.850;4.504;2024-01-30T14:35:05;5.13;;;1.37;;
10191;SDS011;17580;50.850;4.504;2024-01-30T14:37:34;2.43;;;1.37;;
10191;SDS011;17580;50.850;4.504;2024-01-30T14:40:01;2.60;;;1.40;;
10191;SDS011;17580;50.850;4.504;2024-01-30T14:42:30;2.20;;;1.20;;
10191;SDS011;17580;50.850;4.504;2024-01-30T14:44:57;3.07;;;1.37;;
10191;SDS011;17580;50.850;4.504;2024-01-30T14:47:25;3.60;;;1.23;;
10191;SDS011;17580;50.850;4.504;2024-01-30T14:49:52;2.73;;;1.13;;